createdAt,value
2019-02-08T00:01:32.655Z,15.77
2019-02-08T00:04:01.859Z,16.30
2019-02-08T00:06:31.058Z,13.80
2019-02-08T00:09:00.256Z,13.47
2019-02-08T00:11:29.426Z,12.97
2019-02-08T00:13:58.925Z,14.47
2019-02-08T00:16:28.217Z,15.20
2019-02-08T00:18:57.456Z,12.97
2019-02-08T00:21:26.639Z,12.93
2019-02-08T00:23:55.825Z,13.57
2019-02-08T00:26:25.000Z,12.57
2019-02-08T00:28:54.208Z,13.77
2019-02-08T00:31:23.716Z,12.63
2019-02-08T00:33:53.283Z,14.37
2019-02-08T00:36:22.511Z,16.43
2019-02-08T00:38:51.706Z,12.97
2019-02-08T00:41:20.898Z,14.43
2019-02-08T00:43:50.105Z,13.13
2019-02-08T00:46:19.273Z,11.53
2019-02-08T00:48:48.465Z,13.47
2019-02-08T00:51:17.720Z,12.10
2019-02-08T00:53:46.941Z,12.90
2019-02-08T00:56:16.185Z,12.43
2019-02-08T00:58:45.387Z,10.33
2019-02-08T01:01:14.549Z,11.63
2019-02-08T01:03:44.372Z,12.20
2019-02-08T01:06:13.867Z,13.67
2019-02-08T01:08:43.089Z,9.93
2019-02-08T01:11:12.302Z,10.50
2019-02-08T01:13:41.495Z,11.03
2019-02-08T01:16:10.722Z,10.07
2019-02-08T01:18:39.877Z,11.90
2019-02-08T01:21:09.043Z,9.60
2019-02-08T01:23:41.247Z,11.30
2019-02-08T01:26:09.104Z,11.30
2019-02-08T01:28:38.330Z,11.77
2019-02-08T01:31:07.536Z,9.60
2019-02-08T01:33:36.702Z,11.20
2019-02-08T01:36:05.946Z,9.43
2019-02-08T01:38:35.165Z,11.57
2019-02-08T01:41:04.379Z,10.50
2019-02-08T01:43:33.908Z,10.67
2019-02-08T01:46:03.082Z,9.50
2019-02-08T01:48:32.221Z,10.47
2019-02-08T01:51:01.421Z,10.07
2019-02-08T01:53:30.644Z,9.50
2019-02-08T01:55:59.823Z,10.67
2019-02-08T01:58:28.998Z,9.33
2019-02-08T02:00:58.219Z,10.53
2019-02-08T02:03:27.429Z,10.77
2019-02-08T02:05:57.018Z,8.00
2019-02-08T02:08:26.125Z,11.43
2019-02-08T02:10:55.337Z,8.70
2019-02-08T02:13:24.550Z,10.83
2019-02-08T02:15:53.764Z,8.87
2019-02-08T02:18:22.945Z,9.00
2019-02-08T02:20:52.064Z,8.40
2019-02-08T02:23:21.650Z,8.23
2019-02-08T02:25:50.809Z,7.17
2019-02-08T02:28:20.032Z,8.03
2019-02-08T02:30:49.220Z,9.07
2019-02-08T02:33:18.441Z,7.27
2019-02-08T02:35:47.611Z,8.50
2019-02-08T02:38:16.792Z,8.10
2019-02-08T02:40:45.953Z,8.70
2019-02-08T02:43:15.102Z,8.23
2019-02-08T02:45:44.249Z,6.80
2019-02-08T02:48:14.305Z,10.10
2019-02-08T02:50:43.571Z,8.13
2019-02-08T02:53:12.746Z,9.93
2019-02-08T02:55:41.960Z,7.27
2019-02-08T02:58:11.122Z,8.00
2019-02-08T03:00:47.776Z,7.90
2019-02-08T03:03:17.624Z,6.87
2019-02-08T03:05:47.267Z,8.27
2019-02-08T03:08:16.963Z,6.10
2019-02-08T03:10:46.194Z,7.10
2019-02-08T03:13:15.385Z,8.10
2019-02-08T03:15:44.776Z,7.33
2019-02-08T03:18:13.987Z,8.30
2019-02-08T03:20:43.187Z,8.97
2019-02-08T03:23:12.368Z,7.73
2019-02-08T03:25:41.555Z,7.30
2019-02-08T03:28:10.689Z,6.73
2019-02-08T03:30:51.295Z,6.30
2019-02-08T03:33:20.646Z,6.77
2019-02-08T03:35:49.785Z,7.53
2019-02-08T03:38:18.971Z,8.63
2019-02-08T03:40:48.169Z,8.10
2019-02-08T03:43:17.337Z,7.83
2019-02-08T03:45:47.803Z,8.77
2019-02-08T03:48:16.998Z,7.80
2019-02-08T03:50:46.253Z,7.70
2019-02-08T03:53:15.433Z,6.53
2019-02-08T03:55:44.578Z,8.27
2019-02-08T03:58:13.779Z,6.20
2019-02-08T04:01:00.838Z,6.57
2019-02-08T04:03:30.056Z,7.67
2019-02-08T04:05:59.275Z,7.00
2019-02-08T04:08:28.484Z,8.17
2019-02-08T04:10:57.680Z,7.47
2019-02-08T04:13:26.847Z,5.77
2019-02-08T04:15:56.073Z,8.73
2019-02-08T04:18:25.500Z,7.00
2019-02-08T04:20:54.589Z,6.27
2019-02-08T04:23:23.740Z,6.27
2019-02-08T04:25:52.932Z,6.43
2019-02-08T04:28:22.122Z,7.10
2019-02-08T04:30:51.324Z,6.77
2019-02-08T04:33:20.478Z,5.47
2019-02-08T04:35:49.691Z,6.50
2019-02-08T04:38:18.879Z,11.13
2019-02-08T04:40:48.142Z,6.07
2019-02-08T04:43:17.285Z,6.17
2019-02-08T04:45:46.519Z,5.63
2019-02-08T04:48:15.697Z,5.47
2019-02-08T04:50:44.897Z,6.43
2019-02-08T04:53:14.126Z,5.90
2019-02-08T04:55:43.347Z,6.93
2019-02-08T04:58:12.789Z,5.63
2019-02-08T05:00:41.983Z,6.97
2019-02-08T05:03:11.198Z,5.60
2019-02-08T05:05:40.397Z,6.30
2019-02-08T05:08:09.604Z,5.13
2019-02-08T05:10:38.848Z,6.87
2019-02-08T05:13:08.038Z,6.00
2019-02-08T05:15:37.257Z,5.40
2019-02-08T05:18:06.423Z,5.00
2019-02-08T05:20:35.527Z,5.90
2019-02-08T05:23:04.746Z,4.67
2019-02-08T05:25:33.909Z,4.73
2019-02-08T05:28:03.150Z,5.47
2019-02-08T05:30:33.962Z,5.30
2019-02-08T05:33:03.116Z,4.63
2019-02-08T05:35:32.345Z,5.33
2019-02-08T05:38:01.507Z,6.27
2019-02-08T05:40:30.765Z,4.67
2019-02-08T05:42:59.903Z,5.40
2019-02-08T05:45:29.066Z,4.20
2019-02-08T05:47:58.270Z,5.20
2019-02-08T05:50:27.852Z,4.63
2019-02-08T05:52:57.070Z,4.87
2019-02-08T05:55:27.604Z,5.53
2019-02-08T05:57:56.831Z,3.97
2019-02-08T06:00:33.498Z,5.83
2019-02-08T06:03:02.704Z,4.47
2019-02-08T06:05:31.910Z,4.97
2019-02-08T06:08:01.158Z,4.30
2019-02-08T06:10:30.321Z,4.47
2019-02-08T06:12:59.520Z,10.03
2019-02-08T06:15:28.773Z,6.83
2019-02-08T06:17:57.959Z,7.83
2019-02-08T06:20:28.897Z,5.60
2019-02-08T06:22:58.263Z,5.77
2019-02-08T06:25:27.474Z,7.23
2019-02-08T06:27:57.009Z,7.20
2019-02-08T06:30:26.304Z,5.70
2019-02-08T06:32:55.503Z,3.87
2019-02-08T06:35:28.604Z,6.67
2019-02-08T06:37:58.226Z,3.30
2019-02-08T06:40:27.453Z,4.77
2019-02-08T06:42:57.026Z,6.17
2019-02-08T06:45:26.470Z,5.03
2019-02-08T06:47:55.674Z,7.37
2019-02-08T06:50:25.281Z,5.47
2019-02-08T06:52:54.512Z,5.37
2019-02-08T06:55:23.726Z,4.53
2019-02-08T06:58:11.875Z,4.83
2019-02-08T07:00:48.463Z,6.47
2019-02-08T07:03:29.178Z,5.27
2019-02-08T07:06:17.322Z,7.33
2019-02-08T07:09:14.704Z,6.27
2019-02-08T07:12:05.587Z,5.27
2019-02-08T07:15:02.599Z,4.60
2019-02-08T07:17:59.742Z,6.13
2019-02-08T07:20:39.021Z,6.67
2019-02-08T07:23:25.769Z,7.10
2019-02-08T07:26:04.054Z,12.77
2019-02-08T07:28:39.243Z,7.80
2019-02-08T07:31:14.131Z,6.00
2019-02-08T07:33:52.815Z,6.33
2019-02-08T07:36:40.027Z,9.87
2019-02-08T07:39:27.225Z,10.87
2019-02-08T07:42:14.032Z,21.80
2019-02-08T07:44:48.928Z,29.50
2019-02-08T07:47:26.633Z,19.33
2019-02-08T07:50:13.618Z,12.57
2019-02-08T07:53:04.759Z,12.97
2019-02-08T07:55:57.306Z,13.20
2019-02-08T07:58:38.426Z,14.10
2019-02-08T08:01:35.792Z,16.20
2019-02-08T08:04:12.570Z,14.73
2019-02-08T08:06:53.861Z,14.23
2019-02-08T08:09:51.312Z,13.93
2019-02-08T08:12:37.995Z,11.87
2019-02-08T08:15:18.206Z,9.53
2019-02-08T08:18:24.580Z,13.13
2019-02-08T08:21:06.548Z,10.63
2019-02-08T08:23:44.491Z,11.07
2019-02-08T08:26:35.461Z,8.27
2019-02-08T08:29:10.194Z,9.23
2019-02-08T08:32:02.841Z,11.50
2019-02-08T08:34:45.987Z,11.10
2019-02-08T08:37:51.474Z,11.77
2019-02-08T08:41:26.110Z,13.13
2019-02-08T08:44:24.254Z,17.67
2019-02-08T08:47:19.173Z,16.17
2019-02-08T08:50:31.274Z,15.53
2019-02-08T08:53:17.358Z,18.00
2019-02-08T08:56:33.429Z,15.07
2019-02-08T08:59:33.590Z,18.53
2019-02-08T09:02:28.113Z,18.60
2019-02-08T09:05:27.332Z,14.00
2019-02-08T09:08:30.919Z,14.63
2019-02-08T09:11:46.026Z,15.73
2019-02-08T09:14:55.417Z,15.57
2019-02-08T09:18:16.253Z,14.10
2019-02-08T09:21:14.306Z,14.33
2019-02-08T09:24:29.506Z,11.43
2019-02-08T09:27:44.316Z,12.33
2019-02-08T09:30:39.596Z,11.97
2019-02-08T09:33:57.622Z,8.90
2019-02-08T09:37:35.349Z,9.43
2019-02-08T09:40:54.999Z,10.13
2019-02-08T09:44:26.360Z,10.67
2019-02-08T09:47:47.873Z,9.93
2019-02-08T09:50:53.437Z,9.60
2019-02-08T09:53:57.743Z,9.53
2019-02-08T09:57:09.979Z,8.63
2019-02-08T10:00:00.938Z,10.80
2019-02-08T10:03:00.951Z,9.70
2019-02-08T10:06:05.970Z,8.50
2019-02-08T10:09:02.093Z,9.53
2019-02-08T10:12:41.866Z,8.67
2019-02-08T10:15:47.115Z,10.23
2019-02-08T10:18:52.335Z,10.13
2019-02-08T10:21:57.202Z,10.10
2019-02-08T10:25:32.089Z,8.17
2019-02-08T10:28:50.609Z,7.77
2019-02-08T10:32:08.943Z,7.90
2019-02-08T10:35:05.699Z,8.30
2019-02-08T10:38:25.137Z,8.53
2019-02-08T10:41:47.899Z,8.27
2019-02-08T10:44:33.539Z,7.83
2019-02-08T10:47:40.582Z,8.80
2019-02-08T10:50:52.645Z,5.83
2019-02-08T10:53:57.591Z,6.57
2019-02-08T10:57:19.013Z,11.60
2019-02-08T11:00:53.821Z,6.33
2019-02-08T11:04:13.289Z,7.23
2019-02-08T11:07:04.868Z,6.67
2019-02-08T11:10:21.030Z,6.77
2019-02-08T11:13:26.202Z,6.13
2019-02-08T11:16:41.790Z,6.00
2019-02-08T11:19:19.496Z,7.17
2019-02-08T11:21:50.579Z,6.23
2019-02-08T11:24:21.856Z,6.20
2019-02-08T11:26:51.006Z,5.67
2019-02-08T11:29:20.118Z,4.37
2019-02-08T11:31:49.312Z,5.80
2019-02-08T11:34:18.546Z,6.37
2019-02-08T11:36:47.765Z,8.93
2019-02-08T11:39:19.174Z,5.57
2019-02-08T11:41:49.211Z,6.93
2019-02-08T11:44:19.396Z,15.60
2019-02-08T11:46:48.582Z,16.53
2019-02-08T11:49:17.770Z,8.10
2019-02-08T11:51:46.961Z,9.77
2019-02-08T11:54:16.479Z,6.50
2019-02-08T11:56:45.728Z,8.67
2019-02-08T11:59:14.924Z,13.20
2019-02-08T12:01:46.778Z,7.03
2019-02-08T12:04:15.942Z,10.17
2019-02-08T12:06:45.092Z,7.50
2019-02-08T12:09:16.162Z,5.03
2019-02-08T12:11:45.373Z,6.57
2019-02-08T12:14:14.551Z,6.73
2019-02-08T12:16:43.781Z,6.63
2019-02-08T12:19:12.982Z,7.37
2019-02-08T12:21:42.179Z,5.63
2019-02-08T12:24:11.407Z,5.43
2019-02-08T12:26:40.579Z,4.93
2019-02-08T12:29:09.746Z,6.97
2019-02-08T12:31:38.995Z,5.73
2019-02-08T12:34:08.904Z,6.30
2019-02-08T12:36:38.746Z,4.67
2019-02-08T12:39:12.093Z,4.53
2019-02-08T12:41:41.805Z,7.73
2019-02-08T12:44:11.419Z,4.90
2019-02-08T12:46:40.606Z,6.27
2019-02-08T12:49:09.834Z,5.47
2019-02-08T12:51:39.045Z,5.60
2019-02-08T12:54:08.258Z,4.17
2019-02-08T12:56:37.517Z,5.40
2019-02-08T12:59:06.735Z,5.97
2019-02-08T13:01:37.667Z,5.77
2019-02-08T13:04:06.790Z,4.93
2019-02-08T13:06:35.974Z,3.90
2019-02-08T13:09:09.184Z,4.00
2019-02-08T13:11:38.499Z,4.37
2019-02-08T13:14:08.669Z,6.73
2019-02-08T13:16:37.825Z,4.60
2019-02-08T13:19:07.087Z,4.37
2019-02-08T13:21:36.235Z,6.07
2019-02-08T13:24:05.505Z,4.97
2019-02-08T13:26:35.026Z,4.67
2019-02-08T13:29:05.106Z,4.40
2019-02-08T13:31:34.787Z,6.10
2019-02-08T13:34:06.224Z,4.00
2019-02-08T13:36:38.910Z,6.73
2019-02-08T13:39:15.678Z,4.23
2019-02-08T13:41:46.095Z,5.10
2019-02-08T13:44:15.706Z,8.63
2019-02-08T13:46:49.963Z,5.13
2019-02-08T13:49:19.172Z,4.13
2019-02-08T13:51:48.384Z,4.37
2019-02-08T13:54:17.594Z,4.67
2019-02-08T13:56:46.713Z,4.87
2019-02-08T13:59:15.936Z,4.70
2019-02-08T14:01:45.527Z,5.67
2019-02-08T14:04:14.732Z,4.83
2019-02-08T14:06:44.278Z,4.77
2019-02-08T14:09:13.475Z,4.93
2019-02-08T14:11:42.962Z,4.93
2019-02-08T14:14:12.145Z,10.83
2019-02-08T14:16:43.423Z,9.60
2019-02-08T14:19:12.664Z,11.97
2019-02-08T14:21:43.750Z,8.53
2019-02-08T14:24:16.228Z,8.00
2019-02-08T14:26:46.930Z,6.77
2019-02-08T14:29:16.091Z,8.00
2019-02-08T14:31:45.305Z,9.70
2019-02-08T14:34:14.515Z,4.83
2019-02-08T14:36:44.313Z,5.70
2019-02-08T14:39:13.526Z,6.53
2019-02-08T14:41:42.702Z,7.03
2019-02-08T14:44:11.884Z,4.40
2019-02-08T14:46:41.058Z,7.83
2019-02-08T14:49:10.254Z,5.57
2019-02-08T14:51:39.401Z,9.83
2019-02-08T14:54:08.590Z,5.13
2019-02-08T14:56:37.806Z,7.23
2019-02-08T14:59:07.018Z,5.03
2019-02-08T15:01:36.218Z,4.10
2019-02-08T15:04:05.383Z,4.40
2019-02-08T15:06:34.531Z,5.10
2019-02-08T15:09:04.972Z,3.80
2019-02-08T15:11:34.197Z,4.87
2019-02-08T15:14:03.445Z,4.13
2019-02-08T15:16:32.579Z,5.03
2019-02-08T15:19:01.781Z,7.27
2019-02-08T15:21:30.996Z,5.87
2019-02-08T15:24:00.284Z,3.90
2019-02-08T15:26:29.763Z,3.97
2019-02-08T15:28:58.925Z,5.97
2019-02-08T15:31:28.102Z,4.10
2019-02-08T15:33:57.282Z,4.83
2019-02-08T15:36:26.501Z,4.07
2019-02-08T15:38:55.693Z,3.00
2019-02-08T15:41:24.885Z,5.57
2019-02-08T15:43:54.078Z,4.10
2019-02-08T15:46:23.340Z,5.07
2019-02-08T15:48:52.549Z,3.40
2019-02-08T15:51:21.749Z,2.90
2019-02-08T15:53:50.965Z,5.63
2019-02-08T15:56:20.121Z,4.20
2019-02-08T15:58:49.334Z,3.93
2019-02-08T16:01:18.544Z,2.90
2019-02-08T16:03:47.699Z,3.13
2019-02-08T16:06:16.928Z,3.43
2019-02-08T16:08:46.113Z,2.90
2019-02-08T16:11:15.680Z,4.93
2019-02-08T16:13:45.193Z,3.07
2019-02-08T16:16:14.403Z,3.23
2019-02-08T16:18:43.559Z,8.40
2019-02-08T16:21:12.802Z,5.00
2019-02-08T16:23:41.972Z,3.97
2019-02-08T16:26:11.221Z,3.40
2019-02-08T16:28:40.695Z,5.23
2019-02-08T16:31:11.480Z,4.00
2019-02-08T16:33:41.109Z,4.97
2019-02-08T16:36:10.314Z,4.20
2019-02-08T16:38:39.415Z,3.77
2019-02-08T16:41:08.650Z,7.40
2019-02-08T16:43:37.823Z,5.63
2019-02-08T16:46:07.081Z,3.60
2019-02-08T16:48:36.278Z,4.50
2019-02-08T16:51:05.485Z,4.57
2019-02-08T16:53:34.701Z,6.87
2019-02-08T16:56:03.859Z,5.43
2019-02-08T16:58:32.990Z,6.07
2019-02-08T17:01:02.210Z,5.47
2019-02-08T17:03:31.442Z,4.90
2019-02-08T17:06:00.958Z,5.03
2019-02-08T17:08:30.140Z,4.13
2019-02-08T17:10:59.302Z,4.77
2019-02-08T17:13:28.537Z,4.47
2019-02-08T17:15:57.728Z,4.00
2019-02-08T17:18:26.898Z,4.50
2019-02-08T17:20:56.071Z,4.30
2019-02-08T17:23:25.254Z,4.73
2019-02-08T17:25:54.451Z,5.40
2019-02-08T17:28:23.674Z,4.27
2019-02-08T17:30:53.154Z,4.43
2019-02-08T17:33:22.379Z,4.00
2019-02-08T17:35:51.564Z,4.30
2019-02-08T17:38:20.730Z,5.23
2019-02-08T17:40:49.970Z,5.40
2019-02-08T17:43:19.163Z,5.40
2019-02-08T17:45:48.381Z,5.37
2019-02-08T17:48:17.585Z,4.00
2019-02-08T17:50:46.822Z,5.03
2019-02-08T17:53:16.001Z,4.27
2019-02-08T17:55:45.194Z,4.53
2019-02-08T17:58:14.298Z,6.77
2019-02-08T18:00:46.790Z,4.00
2019-02-08T18:03:15.998Z,5.53
2019-02-08T18:05:45.217Z,4.77
2019-02-08T18:08:14.490Z,5.63
2019-02-08T18:10:43.874Z,4.57
2019-02-08T18:13:13.773Z,5.90
2019-02-08T18:15:43.009Z,5.17
2019-02-08T18:18:17.410Z,5.10
2019-02-08T18:20:48.335Z,5.13
2019-02-08T18:23:17.569Z,5.70
2019-02-08T18:26:06.451Z,5.03
2019-02-08T18:29:05.717Z,5.27
2019-02-08T18:31:43.806Z,6.67
2019-02-08T18:34:38.528Z,5.85
2019-02-08T18:37:10.394Z,7.67
2019-02-08T18:39:39.667Z,4.93
2019-02-08T18:42:08.878Z,7.00
2019-02-08T18:44:38.115Z,6.30
2019-02-08T18:47:07.431Z,7.33
2019-02-08T18:49:36.671Z,7.43
2019-02-08T18:52:05.902Z,6.50
2019-02-08T18:54:35.155Z,7.10
2019-02-08T18:57:04.438Z,6.40
2019-02-08T18:59:34.489Z,5.30
2019-02-08T19:02:03.960Z,7.27
2019-02-08T19:04:33.458Z,6.47
2019-02-08T19:07:02.687Z,9.33
2019-02-08T19:09:31.882Z,7.13
2019-02-08T19:12:01.079Z,6.90
2019-02-08T19:14:30.366Z,6.20
2019-02-08T19:17:00.035Z,6.20
2019-02-08T19:19:29.270Z,7.10
2019-02-08T19:21:58.514Z,6.60
2019-02-08T19:24:27.761Z,9.10
2019-02-08T19:26:56.982Z,9.13
2019-02-08T19:29:26.215Z,9.53
2019-02-08T19:31:55.544Z,8.17
2019-02-08T19:34:25.225Z,24.77
2019-02-08T19:36:54.449Z,27.40
2019-02-08T19:39:23.741Z,37.77
2019-02-08T19:41:53.336Z,34.10
2019-02-08T19:44:22.587Z,35.67
2019-02-08T19:46:51.965Z,44.83
2019-02-08T19:49:21.573Z,38.37
2019-02-08T19:51:51.013Z,44.20
2019-02-08T19:54:20.703Z,46.47
2019-02-08T19:56:50.560Z,51.97
2019-02-08T19:59:19.943Z,46.93
2019-02-08T20:01:49.702Z,44.33
2019-02-08T20:04:19.127Z,45.10
2019-02-08T20:06:50.743Z,35.17
2019-02-08T20:09:20.077Z,36.63
2019-02-08T20:11:49.332Z,36.53
2019-02-08T20:14:18.659Z,39.50
2019-02-08T20:16:47.986Z,34.23
2019-02-08T20:19:17.247Z,33.33
2019-02-08T20:21:46.571Z,38.03
2019-02-08T20:24:15.873Z,33.43
2019-02-08T20:26:45.273Z,35.47
2019-02-08T20:29:14.550Z,29.53
2019-02-08T20:31:43.871Z,29.90
2019-02-08T20:34:13.910Z,31.23
2019-02-08T20:36:43.159Z,30.77
2019-02-08T20:39:12.411Z,31.77
2019-02-08T20:41:41.737Z,26.70
2019-02-08T20:44:10.919Z,24.93
2019-02-08T20:46:40.314Z,24.73
2019-02-08T20:49:09.638Z,26.60
2019-02-08T20:51:38.906Z,25.80
2019-02-08T20:54:08.216Z,25.77
2019-02-08T20:56:37.655Z,23.83
2019-02-08T20:59:06.912Z,25.03
2019-02-08T21:01:36.166Z,24.23
2019-02-08T21:04:05.374Z,26.23
2019-02-08T21:06:34.690Z,27.60
2019-02-08T21:09:04.788Z,22.03
2019-02-08T21:11:34.006Z,22.73
2019-02-08T21:14:03.230Z,20.23
2019-02-08T21:16:33.220Z,20.23
2019-02-08T21:19:02.459Z,20.73
2019-02-08T21:21:32.028Z,18.30
2019-02-08T21:24:01.221Z,18.60
2019-02-08T21:26:30.392Z,19.63
2019-02-08T21:28:59.613Z,20.87
2019-02-08T21:31:28.782Z,18.43
2019-02-08T21:33:58.056Z,18.17
2019-02-08T21:36:27.258Z,16.70
2019-02-08T21:38:56.491Z,17.40
2019-02-08T21:41:28.785Z,17.50
2019-02-08T21:43:59.265Z,18.77
2019-02-08T21:46:28.417Z,18.40
2019-02-08T21:48:57.687Z,17.90
2019-02-08T21:51:26.878Z,18.03
2019-02-08T21:53:56.117Z,15.90
2019-02-08T21:56:25.367Z,18.40
2019-02-08T21:58:54.571Z,17.00
2019-02-08T22:01:23.798Z,16.80
2019-02-08T22:03:53.015Z,15.20
2019-02-08T22:06:22.625Z,15.37
2019-02-08T22:08:51.872Z,16.23
2019-02-08T22:11:21.081Z,13.67
2019-02-08T22:13:50.337Z,14.93
2019-02-08T22:16:19.514Z,14.50
2019-02-08T22:18:48.748Z,16.27
2019-02-08T22:21:18.281Z,15.73
2019-02-08T22:23:47.511Z,12.90
2019-02-08T22:26:16.742Z,14.53
2019-02-08T22:28:45.945Z,14.50
2019-02-08T22:31:15.532Z,11.90
2019-02-08T22:33:45.656Z,13.53
2019-02-08T22:36:14.821Z,15.60
2019-02-08T22:38:44.027Z,12.70
2019-02-08T22:41:13.501Z,12.00
2019-02-08T22:43:42.738Z,11.73
2019-02-08T22:46:11.955Z,14.77
2019-02-08T22:48:41.192Z,12.63
2019-02-08T22:51:10.419Z,13.37
2019-02-08T22:53:39.674Z,12.87
2019-02-08T22:56:08.872Z,13.07
2019-02-08T22:58:38.073Z,12.10
2019-02-08T23:01:30.576Z,12.00
2019-02-08T23:04:01.207Z,12.70
2019-02-08T23:06:30.405Z,11.87
2019-02-08T23:08:59.684Z,10.83
2019-02-08T23:11:28.911Z,13.90
2019-02-08T23:13:58.129Z,13.50
2019-02-08T23:16:27.722Z,12.23
2019-02-08T23:18:57.363Z,10.73
2019-02-08T23:21:26.622Z,9.90
2019-02-08T23:23:55.814Z,11.27
2019-02-08T23:26:25.098Z,11.33
2019-02-08T23:28:54.319Z,11.03
2019-02-08T23:31:23.570Z,9.10
2019-02-08T23:33:52.850Z,11.03
2019-02-08T23:36:22.041Z,10.90
2019-02-08T23:38:51.246Z,10.23
2019-02-08T23:41:20.430Z,9.40
2019-02-08T23:43:49.611Z,8.83
2019-02-08T23:46:18.858Z,9.30
2019-02-08T23:48:48.073Z,7.57
2019-02-08T23:51:17.304Z,9.47
2019-02-08T23:53:47.588Z,9.53
2019-02-08T23:56:18.071Z,9.77
2019-02-08T23:58:47.290Z,11.07
